createdAt,value
2018-09-11T00:00:08.822Z,4.20
2018-09-11T00:02:37.082Z,3.60
2018-09-11T00:05:05.391Z,3.60
2018-09-11T00:07:33.647Z,3.90
2018-09-11T00:10:01.934Z,3.37
2018-09-11T00:12:30.214Z,3.27
2018-09-11T00:14:58.598Z,3.77
2018-09-11T00:17:26.871Z,3.67
2018-09-11T00:19:55.161Z,3.77
2018-09-11T00:22:23.430Z,3.63
2018-09-11T00:24:51.718Z,3.40
2018-09-11T00:27:19.991Z,3.57
2018-09-11T00:29:48.270Z,3.53
2018-09-11T00:32:16.547Z,3.50
2018-09-11T00:34:44.825Z,3.73
2018-09-11T00:37:13.167Z,3.20
2018-09-11T00:39:41.462Z,3.40
2018-09-11T00:42:09.746Z,3.23
2018-09-11T00:44:38.021Z,2.73
2018-09-11T00:47:06.445Z,3.30
2018-09-11T00:49:34.730Z,2.90
2018-09-11T00:52:03.023Z,3.57
2018-09-11T00:54:31.302Z,3.17
2018-09-11T00:56:59.742Z,3.40
2018-09-11T00:59:28.033Z,3.33
2018-09-11T01:01:56.328Z,3.33
2018-09-11T01:04:24.613Z,2.80
2018-09-11T01:06:52.893Z,3.50
2018-09-11T01:09:21.160Z,3.17
2018-09-11T01:11:49.415Z,2.93
2018-09-11T01:14:17.701Z,3.33
2018-09-11T01:16:46.031Z,3.13
2018-09-11T01:19:14.438Z,3.10
2018-09-11T01:21:42.706Z,2.77
2018-09-11T01:24:10.985Z,3.00
2018-09-11T01:26:39.261Z,3.70
2018-09-11T01:29:07.568Z,3.10
2018-09-11T01:31:35.863Z,3.50
2018-09-11T01:34:04.192Z,3.40
2018-09-11T01:36:32.652Z,2.90
2018-09-11T01:39:01.260Z,3.83
2018-09-11T01:41:29.782Z,3.30
2018-09-11T01:43:58.366Z,2.97
2018-09-11T01:46:26.854Z,3.53
2018-09-11T01:48:55.337Z,3.07
2018-09-11T01:51:23.722Z,3.40
2018-09-11T01:53:52.131Z,2.87
2018-09-11T01:56:20.637Z,3.23
2018-09-11T01:58:49.471Z,3.03
2018-09-11T02:01:17.961Z,3.23
2018-09-11T02:03:46.383Z,3.20
2018-09-11T02:06:14.923Z,3.30
2018-09-11T02:08:43.431Z,3.80
2018-09-11T02:11:11.954Z,3.47
2018-09-11T02:13:40.628Z,3.27
2018-09-11T02:16:09.292Z,3.23
2018-09-11T02:18:37.770Z,3.00
2018-09-11T02:21:06.315Z,3.20
2018-09-11T02:23:34.809Z,3.40
2018-09-11T02:26:03.288Z,4.03
2018-09-11T02:28:31.796Z,3.13
2018-09-11T02:31:00.304Z,3.47
2018-09-11T02:33:28.695Z,3.77
2018-09-11T02:35:57.241Z,3.30
2018-09-11T02:38:25.745Z,3.43
2018-09-11T02:40:54.222Z,3.50
2018-09-11T02:43:22.674Z,3.30
2018-09-11T02:45:51.262Z,3.47
2018-09-11T02:48:19.796Z,3.17
2018-09-11T02:50:48.427Z,3.10
2018-09-11T02:53:16.906Z,3.17
2018-09-11T02:55:45.407Z,3.67
2018-09-11T02:58:13.915Z,3.60
2018-09-11T03:00:42.314Z,2.90
2018-09-11T03:03:10.833Z,3.40
2018-09-11T03:05:39.312Z,3.30
2018-09-11T03:08:07.679Z,3.10
2018-09-11T03:10:36.231Z,3.53
2018-09-11T03:13:04.751Z,3.90
2018-09-11T03:15:33.417Z,3.60
2018-09-11T03:18:01.799Z,3.50
2018-09-11T03:20:30.256Z,3.83
2018-09-11T03:22:58.744Z,3.60
2018-09-11T03:25:27.407Z,3.63
2018-09-11T03:27:55.883Z,3.10
2018-09-11T03:30:24.340Z,3.33
2018-09-11T03:32:52.797Z,3.30
2018-09-11T03:35:21.330Z,3.03
2018-09-11T03:37:49.878Z,3.40
2018-09-11T03:40:18.340Z,3.23
2018-09-11T03:42:46.815Z,3.00
2018-09-11T03:45:15.293Z,3.20
2018-09-11T03:47:44.146Z,3.33
2018-09-11T03:50:12.683Z,2.70
2018-09-11T03:52:41.200Z,3.40
2018-09-11T03:55:09.763Z,3.00
2018-09-11T03:57:38.263Z,3.67
2018-09-11T04:00:06.733Z,3.37
2018-09-11T04:02:35.215Z,3.20
2018-09-11T04:05:03.691Z,3.40
2018-09-11T04:07:32.132Z,3.10
2018-09-11T04:10:00.685Z,3.40
2018-09-11T04:12:29.185Z,3.50
2018-09-11T04:14:57.755Z,2.77
2018-09-11T04:17:31.310Z,3.27
2018-09-11T04:19:59.890Z,3.53
2018-09-11T04:22:28.769Z,3.83
2018-09-11T04:24:57.238Z,3.63
2018-09-11T04:27:25.768Z,3.40
2018-09-11T04:29:54.350Z,3.37
2018-09-11T04:32:22.734Z,3.40
2018-09-11T04:34:51.144Z,3.33
2018-09-11T04:37:19.781Z,3.57
2018-09-11T04:39:48.256Z,3.50
2018-09-11T04:42:16.772Z,3.43
2018-09-11T04:44:45.361Z,3.30
2018-09-11T04:47:14.015Z,3.20
2018-09-11T04:49:42.468Z,3.57
2018-09-11T04:52:10.904Z,3.13
2018-09-11T04:54:39.432Z,3.27
2018-09-11T04:57:07.922Z,3.23
2018-09-11T04:59:36.626Z,3.47
2018-09-11T05:02:05.183Z,3.53
2018-09-11T05:04:33.704Z,3.13
2018-09-11T05:07:02.404Z,3.33
2018-09-11T05:09:31.062Z,3.30
2018-09-11T05:11:59.503Z,3.30
2018-09-11T05:14:28.003Z,3.50
2018-09-11T05:16:56.546Z,3.20
2018-09-11T05:19:25.243Z,3.67
2018-09-11T05:21:53.867Z,4.43
2018-09-11T05:24:22.408Z,3.90
2018-09-11T05:26:50.952Z,3.43
2018-09-11T05:29:19.480Z,3.37
2018-09-11T05:31:48.047Z,3.43
2018-09-11T05:34:16.587Z,3.00
2018-09-11T05:36:45.215Z,3.67
2018-09-11T05:39:13.744Z,3.23
2018-09-11T05:41:43.160Z,3.50
2018-09-11T05:44:11.577Z,3.20
2018-09-11T05:46:40.041Z,2.90
2018-09-11T05:49:10.444Z,3.30
2018-09-11T05:51:40.122Z,2.80
2018-09-11T05:54:08.991Z,3.10
2018-09-11T05:56:37.511Z,3.43
2018-09-11T05:59:07.739Z,2.87
2018-09-11T06:01:36.462Z,3.00
2018-09-11T06:04:05.857Z,2.80
2018-09-11T06:06:34.612Z,3.53
2018-09-11T06:09:03.484Z,3.50
2018-09-11T06:11:32.140Z,3.33
2018-09-11T06:14:00.655Z,3.87
2018-09-11T06:16:29.106Z,3.30
2018-09-11T06:18:57.562Z,3.53
2018-09-11T06:21:26.043Z,3.27
2018-09-11T06:23:54.484Z,2.67
2018-09-11T06:26:22.932Z,3.37
2018-09-11T06:28:51.394Z,3.30
2018-09-11T06:31:20.058Z,2.90
2018-09-11T06:33:48.575Z,3.57
2018-09-11T06:36:17.056Z,3.43
2018-09-11T06:38:45.530Z,3.20
2018-09-11T06:41:14.080Z,3.53
2018-09-11T06:43:42.658Z,3.37
2018-09-11T06:46:11.794Z,3.00
2018-09-11T06:48:40.391Z,3.10
2018-09-11T06:51:08.918Z,3.40
2018-09-11T06:53:37.385Z,3.50
2018-09-11T06:56:05.979Z,3.30
2018-09-11T06:58:34.456Z,3.20
2018-09-11T07:01:02.968Z,2.90
2018-09-11T07:03:31.574Z,3.53
2018-09-11T07:06:03.243Z,3.37
2018-09-11T07:08:34.914Z,3.20
2018-09-11T07:11:03.376Z,2.97
2018-09-11T07:13:31.870Z,3.47
2018-09-11T07:16:00.341Z,3.33
2018-09-11T07:18:28.809Z,4.10
2018-09-11T07:20:57.420Z,3.90
2018-09-11T07:23:25.960Z,3.80
2018-09-11T07:25:54.549Z,3.93
2018-09-11T07:28:22.964Z,3.20
2018-09-11T07:30:51.468Z,3.77
2018-09-11T07:33:19.907Z,4.10
2018-09-11T07:35:48.443Z,3.67
2018-09-11T07:38:17.334Z,3.50
2018-09-11T07:40:45.853Z,3.60
2018-09-11T07:43:14.290Z,3.20
2018-09-11T07:45:42.724Z,3.40
2018-09-11T07:48:11.212Z,4.03
2018-09-11T07:50:39.670Z,3.70
2018-09-11T07:53:08.176Z,3.73
2018-09-11T07:55:36.567Z,3.53
2018-09-11T07:58:05.019Z,3.53
2018-09-11T08:00:33.479Z,3.17
2018-09-11T08:03:02.101Z,3.80
2018-09-11T08:05:30.679Z,3.83
2018-09-11T08:07:59.160Z,3.87
2018-09-11T08:10:27.628Z,4.23
2018-09-11T08:12:56.155Z,4.27
2018-09-11T08:15:24.669Z,3.70
2018-09-11T08:17:53.133Z,4.40
2018-09-11T08:20:21.499Z,4.00
2018-09-11T08:22:49.939Z,3.87
2018-09-11T08:25:18.413Z,3.80
2018-09-11T08:27:46.815Z,3.80
2018-09-11T08:30:15.292Z,4.03
2018-09-11T08:32:43.809Z,4.03
2018-09-11T08:35:18.666Z,3.70
2018-09-11T08:37:47.123Z,3.90
2018-09-11T08:40:15.610Z,4.07
2018-09-11T08:42:44.064Z,3.50
2018-09-11T08:45:12.707Z,3.20
2018-09-11T08:47:41.318Z,4.07
2018-09-11T08:50:09.776Z,3.43
2018-09-11T08:52:38.221Z,3.50
2018-09-11T08:55:06.840Z,2.90
2018-09-11T08:57:35.261Z,2.90
2018-09-11T09:00:03.815Z,3.00
2018-09-11T09:02:32.311Z,3.37
2018-09-11T09:05:00.854Z,3.07
2018-09-11T09:07:29.243Z,3.27
2018-09-11T09:09:57.817Z,3.13
2018-09-11T09:12:26.227Z,3.27
2018-09-11T09:14:54.660Z,2.67
2018-09-11T09:17:23.142Z,3.00
2018-09-11T09:19:51.627Z,2.83
2018-09-11T09:22:20.318Z,3.03
2018-09-11T09:24:48.763Z,2.57
2018-09-11T09:27:17.388Z,2.80
2018-09-11T09:29:45.715Z,2.60
2018-09-11T09:32:14.188Z,2.73
2018-09-11T09:34:42.571Z,2.47
2018-09-11T09:37:11.442Z,2.70
2018-09-11T09:39:39.996Z,2.63
2018-09-11T09:42:08.550Z,3.00
2018-09-11T09:44:37.468Z,2.97
2018-09-11T09:47:06.009Z,2.90
2018-09-11T09:49:34.589Z,3.10
2018-09-11T09:52:04.159Z,2.63
2018-09-11T09:54:32.704Z,2.80
2018-09-11T09:57:01.251Z,2.40
2018-09-11T09:59:29.902Z,2.40
2018-09-11T10:02:03.075Z,2.47
2018-09-11T10:04:32.255Z,2.70
2018-09-11T10:07:03.068Z,2.47
2018-09-11T10:09:31.711Z,2.77
2018-09-11T10:12:00.285Z,2.37
2018-09-11T10:14:28.738Z,2.23
2018-09-11T10:16:57.463Z,2.50
2018-09-11T10:19:25.930Z,2.40
2018-09-11T10:21:54.351Z,2.77
2018-09-11T10:24:22.854Z,2.70
2018-09-11T10:26:51.318Z,2.60
2018-09-11T10:29:19.776Z,2.47
2018-09-11T10:31:48.245Z,3.30
2018-09-11T10:34:16.751Z,2.50
2018-09-11T10:36:45.271Z,2.83
2018-09-11T10:39:13.877Z,2.77
2018-09-11T10:41:42.559Z,2.43
2018-09-11T10:44:13.707Z,3.33
2018-09-11T10:46:42.315Z,2.90
2018-09-11T10:49:10.798Z,2.77
2018-09-11T10:51:39.720Z,2.70
2018-09-11T10:54:08.505Z,2.70
2018-09-11T10:56:37.292Z,2.70
2018-09-11T10:59:05.962Z,2.60
2018-09-11T11:01:34.474Z,2.83
2018-09-11T11:04:03.279Z,2.80
2018-09-11T11:06:31.956Z,2.70
2018-09-11T11:09:00.452Z,2.67
2018-09-11T11:11:28.977Z,2.70
2018-09-11T11:13:58.789Z,2.13
2018-09-11T11:16:27.411Z,3.17
2018-09-11T11:18:55.903Z,2.37
2018-09-11T11:21:24.378Z,2.40
2018-09-11T11:23:52.841Z,2.53
2018-09-11T11:26:21.457Z,2.60
2018-09-11T11:28:50.261Z,3.50
2018-09-11T11:31:19.928Z,3.83
2018-09-11T11:33:48.844Z,3.17
2018-09-11T11:36:17.439Z,9.17
2018-09-11T11:38:46.677Z,3.50
2018-09-11T11:41:15.247Z,2.70
2018-09-11T11:43:43.975Z,2.90
2018-09-11T11:46:12.475Z,2.63
2018-09-11T11:48:40.981Z,2.70
2018-09-11T11:51:09.510Z,2.50
2018-09-11T11:53:37.998Z,2.83
2018-09-11T11:56:06.971Z,2.97
2018-09-11T11:58:35.569Z,2.40
2018-09-11T12:01:04.097Z,2.87
2018-09-11T12:03:36.987Z,2.60
2018-09-11T12:06:05.508Z,2.30
2018-09-11T12:08:33.947Z,2.53
2018-09-11T12:11:02.531Z,2.10
2018-09-11T12:13:31.224Z,2.53
2018-09-11T12:15:59.865Z,2.40
2018-09-11T12:18:29.077Z,2.20
2018-09-11T12:20:57.585Z,2.00
2018-09-11T12:23:26.299Z,2.17
2018-09-11T12:25:54.898Z,2.30
2018-09-11T12:28:24.301Z,2.53
2018-09-11T12:30:53.577Z,2.60
2018-09-11T12:33:23.408Z,2.30
2018-09-11T12:35:51.977Z,2.13
2018-09-11T12:38:20.514Z,2.47
2018-09-11T12:40:50.327Z,2.77
2018-09-11T12:43:18.973Z,2.60
2018-09-11T12:45:47.469Z,2.50
2018-09-11T12:48:17.096Z,2.17
2018-09-11T12:50:45.416Z,2.43
2018-09-11T12:53:13.845Z,2.43
2018-09-11T12:55:43.526Z,2.20
2018-09-11T12:58:12.261Z,2.33
2018-09-11T13:00:40.847Z,2.20
2018-09-11T13:03:09.952Z,2.30
2018-09-11T13:05:38.410Z,2.60
2018-09-11T13:08:06.880Z,2.10
2018-09-11T13:10:35.418Z,2.27
2018-09-11T13:13:04.031Z,2.70
2018-09-11T13:15:32.731Z,2.40
2018-09-11T13:18:01.207Z,2.93
2018-09-11T13:20:29.938Z,2.63
2018-09-11T13:22:58.812Z,2.30
2018-09-11T13:25:27.406Z,2.43
2018-09-11T13:27:56.379Z,2.80
2018-09-11T13:30:24.829Z,2.50
2018-09-11T13:32:53.274Z,2.50
2018-09-11T13:35:21.989Z,2.30
2018-09-11T13:37:50.448Z,2.57
2018-09-11T13:40:19.052Z,2.17
2018-09-11T13:42:47.461Z,2.10
2018-09-11T13:45:15.963Z,2.50
2018-09-11T13:47:44.555Z,2.03
2018-09-11T13:50:13.057Z,2.73
2018-09-11T13:52:42.101Z,2.60
2018-09-11T13:55:10.770Z,1.97
2018-09-11T13:57:39.254Z,2.27
2018-09-11T14:00:07.815Z,2.30
2018-09-11T14:02:36.344Z,2.37
2018-09-11T14:05:05.149Z,2.43
2018-09-11T14:07:33.883Z,2.17
2018-09-11T14:10:02.507Z,2.50
2018-09-11T14:12:31.439Z,2.10
2018-09-11T14:14:59.825Z,2.40
2018-09-11T14:17:28.402Z,2.30
2018-09-11T14:19:56.884Z,2.50
2018-09-11T14:22:25.581Z,2.33
2018-09-11T14:24:54.063Z,2.17
2018-09-11T14:27:22.614Z,2.20
2018-09-11T14:29:51.100Z,2.43
2018-09-11T14:32:19.656Z,2.50
2018-09-11T14:34:48.382Z,2.40
2018-09-11T14:37:16.905Z,2.10
2018-09-11T14:39:45.602Z,2.43
2018-09-11T14:42:14.136Z,2.37
2018-09-11T14:44:42.696Z,2.27
2018-09-11T14:47:11.348Z,2.23
2018-09-11T14:49:39.884Z,2.70
2018-09-11T14:52:08.402Z,2.40
2018-09-11T14:54:36.986Z,2.47
2018-09-11T14:57:05.628Z,2.60
2018-09-11T14:59:34.183Z,2.50
2018-09-11T15:02:02.647Z,2.73
2018-09-11T15:04:31.051Z,2.27
2018-09-11T15:06:59.484Z,2.53
2018-09-11T15:09:27.891Z,2.10
2018-09-11T15:11:56.316Z,2.53
2018-09-11T15:14:24.799Z,2.60
2018-09-11T15:16:53.256Z,2.40
2018-09-11T15:19:21.814Z,2.43
2018-09-11T15:21:50.313Z,2.53
2018-09-11T15:24:19.238Z,2.40
2018-09-11T15:26:47.885Z,2.50
2018-09-11T15:29:16.357Z,2.50
2018-09-11T15:31:44.914Z,2.47
2018-09-11T15:34:13.462Z,2.90
2018-09-11T15:36:41.995Z,2.67
2018-09-11T15:39:10.507Z,2.70
2018-09-11T15:41:39.093Z,2.70
2018-09-11T15:44:07.695Z,2.70
2018-09-11T15:46:36.135Z,2.53
2018-09-11T15:49:04.818Z,2.80
2018-09-11T15:51:33.341Z,3.07
2018-09-11T15:54:01.891Z,2.97
2018-09-11T15:56:30.427Z,2.83
2018-09-11T15:58:58.931Z,3.27
2018-09-11T16:01:27.496Z,2.37
2018-09-11T16:03:56.132Z,3.00
2018-09-11T16:06:24.639Z,2.83
2018-09-11T16:08:53.136Z,2.40
2018-09-11T16:11:21.554Z,2.50
2018-09-11T16:13:50.047Z,2.60
2018-09-11T16:16:18.608Z,2.60
2018-09-11T16:18:47.230Z,2.37
2018-09-11T16:21:15.680Z,2.73
2018-09-11T16:23:44.212Z,2.40
2018-09-11T16:26:12.721Z,2.93
2018-09-11T16:28:41.203Z,2.60
2018-09-11T16:31:09.649Z,2.30
2018-09-11T16:33:38.227Z,2.70
2018-09-11T16:36:06.701Z,2.80
2018-09-11T16:38:35.142Z,2.73
2018-09-11T16:41:03.723Z,2.63
2018-09-11T16:43:32.210Z,2.60
2018-09-11T16:46:00.617Z,2.53
2018-09-11T16:48:29.131Z,2.30
2018-09-11T16:50:57.591Z,2.60
2018-09-11T16:53:26.131Z,2.50
2018-09-11T16:55:54.640Z,2.87
2018-09-11T16:58:23.135Z,2.47
2018-09-11T17:00:52.592Z,2.63
2018-09-11T17:03:21.204Z,3.10
2018-09-11T17:05:49.997Z,2.60
2018-09-11T17:08:18.593Z,2.93
2018-09-11T17:10:47.170Z,3.13
2018-09-11T17:13:15.802Z,2.80
2018-09-11T17:15:44.278Z,2.83
2018-09-11T17:18:12.800Z,2.83
2018-09-11T17:23:19.660Z,3.07
2018-09-11T17:25:48.291Z,2.97
2018-09-11T17:28:16.672Z,2.83
2018-09-11T17:30:44.894Z,2.40
2018-09-11T17:33:13.265Z,2.40
2018-09-11T17:35:41.554Z,2.63
2018-09-11T17:38:32.795Z,2.67
2018-09-11T17:41:01.023Z,2.50
2018-09-11T17:43:29.242Z,2.57
2018-09-11T17:45:57.483Z,2.63
2018-09-11T17:48:25.706Z,2.70
2018-09-11T17:51:10.950Z,3.10
2018-09-11T17:53:39.197Z,3.30
2018-09-11T17:56:07.455Z,2.80
2018-09-11T17:58:35.686Z,3.20
2018-09-11T18:01:04.271Z,2.93
2018-09-11T18:03:32.654Z,2.93
2018-09-11T18:06:10.854Z,2.97
2018-09-11T18:08:39.145Z,3.00
2018-09-11T18:11:07.320Z,3.00
2018-09-11T18:13:35.551Z,3.27
2018-09-11T18:16:03.843Z,3.17
2018-09-11T18:18:32.054Z,3.23
2018-09-11T18:21:00.599Z,4.50
2018-09-11T18:23:28.832Z,5.07
2018-09-11T18:25:57.191Z,4.37
2018-09-11T18:28:25.827Z,3.50
2018-09-11T18:30:54.090Z,3.50
2018-09-11T18:33:22.487Z,3.20
2018-09-11T18:35:50.698Z,3.63
2018-09-11T18:38:18.916Z,3.97
2018-09-11T18:40:47.133Z,3.47
2018-09-11T18:43:15.382Z,3.40
2018-09-11T18:45:57.803Z,3.20
2018-09-11T18:48:27.007Z,3.30
2018-09-11T18:50:55.227Z,3.63
2018-09-11T18:53:23.482Z,3.77
2018-09-11T18:55:51.747Z,4.10
2018-09-11T18:58:19.960Z,3.60
2018-09-11T19:00:48.551Z,3.77
2018-09-11T19:03:16.843Z,3.77
2018-09-11T19:05:45.070Z,3.47
2018-09-11T19:08:13.546Z,3.57
2018-09-11T19:10:42.486Z,3.83
2018-09-11T19:13:10.774Z,3.37
2018-09-11T19:15:39.282Z,3.87
2018-09-11T19:18:07.579Z,3.60
2018-09-11T19:20:36.323Z,4.13
2018-09-11T19:23:04.599Z,4.00
2018-09-11T19:25:38.153Z,3.67
2018-09-11T19:28:06.359Z,3.70
2018-09-11T19:30:34.580Z,4.10
2018-09-11T19:33:08.986Z,3.73
2018-09-11T19:35:37.242Z,3.67
2018-09-11T19:38:13.787Z,3.53
2018-09-11T19:40:42.169Z,3.67
2018-09-11T19:43:10.551Z,3.40
2018-09-11T19:45:38.801Z,3.57
2018-09-11T19:48:07.047Z,3.57
2018-09-11T19:50:35.316Z,3.83
2018-09-11T19:53:04.547Z,3.67
2018-09-11T19:55:32.887Z,3.87
2018-09-11T19:58:01.196Z,4.00
2018-09-11T20:00:29.575Z,3.63
2018-09-11T20:03:05.677Z,3.70
2018-09-11T20:05:33.915Z,3.70
2018-09-11T20:08:02.196Z,4.17
2018-09-11T20:10:31.113Z,4.10
2018-09-11T20:13:01.737Z,3.90
2018-09-11T20:15:30.003Z,4.80
2018-09-11T20:17:58.771Z,4.13
2018-09-11T20:20:27.383Z,4.20
2018-09-11T20:22:55.915Z,4.43
2018-09-11T20:25:24.468Z,4.00
2018-09-11T20:27:53.782Z,4.53
2018-09-11T20:30:22.083Z,3.70
2018-09-11T20:32:57.142Z,3.77
2018-09-11T20:35:25.357Z,3.97
2018-09-11T20:38:06.926Z,3.47
2018-09-11T20:40:35.168Z,4.13
2018-09-11T20:43:03.556Z,4.00
2018-09-11T20:45:31.793Z,4.50
2018-09-11T20:48:00.312Z,4.27
2018-09-11T20:50:28.515Z,3.73
2018-09-11T20:52:56.780Z,4.70
2018-09-11T20:55:25.064Z,3.97
2018-09-11T20:57:53.283Z,4.37
2018-09-11T21:00:21.490Z,4.80
2018-09-11T21:02:50.571Z,4.50
2018-09-11T21:05:18.831Z,4.37
2018-09-11T21:07:47.081Z,4.40
2018-09-11T21:10:15.296Z,4.50
2018-09-11T21:12:43.535Z,4.40
2018-09-11T21:15:12.018Z,4.90
2018-09-11T21:17:40.211Z,4.83
2018-09-11T21:20:08.444Z,5.43
2018-09-11T21:22:36.655Z,5.03
2018-09-11T21:25:04.890Z,4.63
2018-09-11T21:27:33.230Z,5.00
2018-09-11T21:30:01.594Z,4.23
2018-09-11T21:32:30.012Z,4.80
2018-09-11T21:34:58.382Z,4.50
2018-09-11T21:37:26.586Z,4.73
2018-09-11T21:39:54.799Z,4.70
2018-09-11T21:42:23.006Z,4.30
2018-09-11T21:44:51.220Z,4.87
2018-09-11T21:47:19.447Z,4.73
2018-09-11T21:49:47.841Z,4.77
2018-09-11T21:52:16.036Z,4.53
2018-09-11T21:54:44.246Z,4.83
2018-09-11T21:57:12.455Z,4.53
2018-09-11T21:59:40.663Z,4.63
2018-09-11T22:02:08.865Z,4.90
2018-09-11T22:04:37.079Z,4.80
2018-09-11T22:07:05.455Z,5.07
2018-09-11T22:09:33.675Z,4.60
2018-09-11T22:12:01.937Z,4.97
2018-09-11T22:14:30.108Z,4.70
2018-09-11T22:16:58.314Z,5.03
2018-09-11T22:19:26.595Z,5.80
2018-09-11T22:21:54.803Z,4.40
2018-09-11T22:24:23.015Z,5.27
2018-09-11T22:26:51.218Z,4.67
2018-09-11T22:29:19.439Z,4.57
2018-09-11T22:31:47.645Z,4.50
2018-09-11T22:34:15.862Z,5.20
2018-09-11T22:36:44.071Z,5.10
2018-09-11T22:39:12.282Z,4.97
2018-09-11T22:41:40.501Z,5.30
2018-09-11T22:44:08.686Z,5.23
2018-09-11T22:46:36.898Z,4.70
2018-09-11T22:49:05.165Z,4.30
2018-09-11T22:51:33.391Z,4.47
2018-09-11T22:54:01.608Z,5.17
2018-09-11T22:56:29.807Z,5.17
2018-09-11T22:58:58.018Z,4.77
2018-09-11T23:01:26.235Z,4.60
2018-09-11T23:03:54.444Z,4.83
2018-09-11T23:06:23.032Z,4.43
2018-09-11T23:08:51.230Z,4.73
2018-09-11T23:11:19.435Z,5.20
2018-09-11T23:13:47.639Z,4.17
2018-09-11T23:16:15.850Z,4.60
2018-09-11T23:18:44.059Z,4.33
2018-09-11T23:21:12.291Z,4.63
2018-09-11T23:23:40.499Z,5.40
2018-09-11T23:26:08.710Z,4.97
2018-09-11T23:28:36.909Z,5.00
2018-09-11T23:31:05.123Z,5.00
2018-09-11T23:33:33.332Z,4.50
2018-09-11T23:36:01.538Z,4.73
2018-09-11T23:38:29.742Z,4.97
2018-09-11T23:40:57.974Z,4.70
2018-09-11T23:43:26.175Z,4.77
2018-09-11T23:45:54.382Z,5.63
2018-09-11T23:48:22.586Z,5.00
2018-09-11T23:50:50.794Z,5.30
2018-09-11T23:53:19.044Z,4.60
2018-09-11T23:55:47.263Z,4.43
2018-09-11T23:58:15.491Z,5.10
